Terminal Aerodrome Forecast
Issued by NWS

Home | Current Version | Previous Version | Text Only | Print | Product List | Glossary On
Versions: 1 2 3 4 5 6 7 8 9 10 11 12 13 14 15
358
FTUS41 KPBZ 220532
TAFFKL
TAF
KFKL 220532Z 2206/2306 22004KT P6SM VCSH OVC060
      TEMPO 2206/2208 5SM -SHRA BR
     FM220800 13004KT 5SM BR OVC050
     FM221300 12004KT P6SM BKN040
     FM222200 09008KT P6SM BKN030
     FM230300 09010G18KT P6SM OVC008
      AMD NOT SKED=

USA.gov is the U.S. government's official web portal to all federal, state and local government web resources and services.